Time;durP1;ratioP1;P1;durP2;ratioP2;P2;SDS_P1;SDS_P2;PMS_P1;PMS_P2;Temp;Humidity;BMP_temperature;BMP_pressure;BME280_temperature;BME280_humidity;BME280_pressure;Samples;Min_cycle;Max_cycle;Signal;HPM_P1;HPM_P2
2023/03/23 00:01:50;;;;;;;22.92;3.10;;;;;;;11.04;75.27;98483.31;4948520;29;20114;-96
2023/03/23 00:04:16;;;;;;;25.98;3.35;;;;;;;11.36;73.76;98503.63;4942713;29;20039;-96
2023/03/23 00:06:44;;;;;;;16.70;2.53;;;;;;;11.06;73.26;98479.66;4941446;28;20027;-95
2023/03/23 00:09:14;;;;;;;19.67;3.30;;;;;;;10.96;72.10;98484.03;4983860;28;20433;-96
2023/03/23 00:11:40;;;;;;;18.83;3.25;;;;;;;10.99;72.58;98478.56;4949673;28;20046;-96
2023/03/23 00:14:12;;;;;;;23.05;2.92;;;;;;;11.02;73.67;98495.56;4955707;29;20035;-96
2023/03/23 00:16:40;;;;;;;;;;;;;;;11.41;72.34;98516.97;4949954;29;20028;-96
2023/03/23 00:19:08;;;;;;;23.17;2.85;;;;;;;11.10;73.64;98506.03;4949108;29;19918;-96
2023/03/23 00:21:37;;;;;;;18.70;3.03;;;;;;;10.93;73.68;98513.50;4955151;28;20031;-95
2023/03/23 00:24:12;;;;;;;22.80;3.30;;;;;;;10.83;73.31;98493.84;4955253;29;20051;-96
2023/03/23 00:26:40;;;;;;;17.23;2.83;;;;;;;10.98;74.37;98520.84;4954015;29;20391;-96
2023/03/23 00:29:13;;;;;;;25.58;3.85;;;;;;;10.98;74.44;98535.53;4969672;28;20031;-96
2023/03/23 00:31:39;;;;;;;28.05;3.55;;;;;;;10.78;73.64;98503.72;4953481;29;20030;-95
2023/03/23 00:34:05;;;;;;;36.42;4.07;;;;;;;10.34;75.74;98503.31;4950327;29;20039;-95
2023/03/23 00:36:34;;;;;;;25.33;3.58;;;;;;;10.85;74.16;98528.88;4985583;28;20058;-96
2023/03/23 00:39:04;;;;;;;28.38;4.22;;;;;;;10.85;73.39;98541.78;4986578;28;20035;-95
2023/03/23 00:41:30;;;;;;;26.05;4.00;;;;;;;10.66;73.20;98531.47;4950445;29;20031;-96
2023/03/23 00:43:57;;;;;;;26.10;3.67;;;;;;;10.54;72.14;98553.19;4943775;28;20041;-96
2023/03/23 00:46:24;;;;;;;28.63;3.28;;;;;;;10.53;71.30;98536.06;4985188;28;20053;-95
2023/03/23 00:48:50;;;;;;;19.60;3.42;;;;;;;10.25;72.65;98528.94;4950108;29;20032;-96
2023/03/23 00:51:19;;;;;;;25.48;3.95;;;;;;;10.21;74.09;98549.94;4934822;29;20059;-96
2023/03/23 00:53:45;;;;;;;22.25;3.08;;;;;;;10.01;75.18;98542.16;4948452;29;20045;-96
2023/03/23 00:56:11;;;;;;;25.95;4.53;;;;;;;7.89;89.45;98548.16;4953979;29;20023;-96
2023/03/23 00:58:36;;;;;;;29.25;4.53;;;;;;;7.52;94.28;98550.97;4953348;29;20024;-96
2023/03/23 01:01:03;;;;;;;39.80;4.57;;;;;;;8.75;89.45;98536.31;4948973;29;20106;-96
2023/03/23 01:03:29;;;;;;;32.17;5.28;;;;;;;7.71;95.74;98551.22;4953507;28;20039;-96
2023/03/23 01:05:55;;;;;;;21.90;3.45;;;;;;;7.56;97.82;98556.66;4986597;28;20031;-96
2023/03/23 01:08:22;;;;;;;24.20;4.05;;;;;;;7.71;99.58;98556.34;4990989;28;20023;-96
2023/03/23 01:10:48;;;;;;;25.98;4.45;;;;;;;7.84;98.20;98550.28;4992669;28;20030;-95
2023/03/23 01:13:15;;;;;;;27.02;3.65;;;;;;;7.55;100.00;98560.19;4959502;29;20023;-96
2023/03/23 01:15:41;;;;;;;34.55;5.85;;;;;;;7.42;100.00;98560.28;4991237;28;20101;-95
2023/03/23 01:18:07;;;;;;;31.83;4.25;;;;;;;8.03;98.88;98557.41;4955991;28;20038;-96
2023/03/23 01:20:32;;;;;;;33.42;4.38;;;;;;;7.45;100.00;98562.63;4956331;28;20023;-96
2023/03/23 01:23:01;;;;;;;22.40;3.38;;;;;;;7.49;100.00;98577.69;4959243;28;20031;-95
2023/03/23 01:25:32;;;;;;;40.30;5.32;;;;;;;6.94;100.00;98563.75;4959700;28;20038;-96
2023/03/23 01:27:58;;;;;;;28.80;4.13;;;;;;;7.14;100.00;98566.63;4959919;29;20097;-95
2023/03/23 01:30:24;;;;;;;28.23;4.63;;;;;;;7.47;100.00;98581.28;4959832;28;20344;-95
2023/03/23 01:32:50;;;;;;;25.25;3.95;;;;;;;7.11;100.00;98565.09;4960046;29;20074;-96
2023/03/23 01:35:16;;;;;;;31.60;4.93;;;;;;;7.07;100.00;98561.13;4957448;29;20398;-95
2023/03/23 01:37:42;;;;;;;25.50;5.20;;;;;;;7.32;95.88;98567.03;4992350;28;20034;-96
2023/03/23 01:40:09;;;;;;;32.90;4.97;;;;;;;7.15;96.82;98561.41;4958416;28;20038;-94
2023/03/23 01:42:36;;;;;;;31.63;3.55;;;;;;;7.21;97.20;98583.22;4959595;28;20034;-96
2023/03/23 01:45:20;;;;;;;17.95;2.80;;;;;;;7.38;95.11;98587.09;4958913;28;20030;-95
2023/03/23 01:48:08;;;;;;;29.02;5.18;;;;;;;7.28;93.11;98566.44;4959816;28;20023;-95
2023/03/23 01:51:08;;;;;;;26.15;4.03;;;;;;;7.13;93.29;98570.94;4958689;28;20066;-95
2023/03/23 01:53:39;;;;;;;16.13;3.17;;;;;;;7.18;94.79;98586.81;4946850;29;20390;-96
2023/03/23 01:56:08;;;;;;;23.53;3.50;;;;;;;7.04;96.10;98574.19;4959087;29;20030;-96
2023/03/23 01:58:36;;;;;;;24.27;3.80;;;;;;;7.13;96.54;98595.78;4959187;29;20035;-96
2023/03/23 02:01:07;;;;;;;17.30;2.40;;;;;;;7.33;91.48;98582.31;4954918;28;20031;-96
2023/03/23 02:03:34;;;;;;;31.30;3.28;;;;;;;7.17;94.11;98577.50;4940594;29;20040;-96
2023/03/23 02:06:00;;;;;;;19.70;2.78;;;;;;;7.14;93.26;98587.97;4950079;28;20031;-96
2023/03/23 02:08:28;;;;;;;26.20;3.28;;;;;;;7.24;94.51;98600.94;4956061;28;20106;-96
2023/03/23 02:10:54;;;;;;;41.78;11.25;;;;;;;7.27;94.01;98604.13;4940380;29;20034;-96
2023/03/23 02:13:20;;;;;;;22.33;4.00;;;;;;;7.15;93.36;98581.91;4956225;28;20082;-96
2023/03/23 02:16:11;;;;;;;24.50;4.50;;;;;;;7.13;96.84;98603.47;4955592;28;20027;-95
2023/03/23 02:18:55;;;;;;;17.23;3.67;;;;;;;7.19;94.19;98592.75;4986785;28;20051;-95
2023/03/23 02:21:42;;;;;;;14.75;2.42;;;;;;;6.95;95.47;98593.63;4951250;29;20282;-96
2023/03/23 02:24:16;;;;;;;21.77;5.15;;;;;;;6.97;95.83;98607.13;4955750;28;20055;-96
2023/03/23 02:26:54;;;;;;;24.92;4.05;;;;;;;6.70;96.70;98570.66;4955810;28;20087;-96
2023/03/23 02:29:47;;;;;;;16.80;3.78;;;;;;;6.74;99.37;98601.09;4955366;29;20058;-96
2023/03/23 02:32:52;;;;;;;26.73;3.15;;;;;;;6.76;97.50;98601.81;4956142;29;20031;-95
2023/03/23 02:35:21;;;;;;;30.88;3.65;;;;;;;6.60;97.16;98578.19;4988562;28;20031;-96
2023/03/23 02:38:18;;;;;;;20.92;3.97;;;;;;;6.54;99.00;98591.44;4956259;29;20054;-96
2023/03/23 02:40:47;;;;;;;20.48;3.40;;;;;;;6.53;99.90;98594.91;4952155;29;20035;-95
2023/03/23 02:43:17;;;;;;;22.83;2.88;;;;;;;6.62;97.74;98589.16;4955962;29;20038;-96
2023/03/23 02:45:45;;;;;;;26.50;4.85;;;;;;;6.57;97.89;98589.47;4987615;28;20023;-96
2023/03/23 02:48:14;;;;;;;26.77;3.60;;;;;;;6.65;98.20;98614.56;4956157;29;20033;-96
2023/03/23 02:50:43;;;;;;;20.85;3.47;;;;;;;6.35;97.80;98577.34;4955493;28;20031;-96
2023/03/23 02:53:10;;;;;;;25.80;4.95;;;;;;;6.74;95.51;98613.09;4954652;29;20031;-96
2023/03/23 02:55:41;;;;;;;22.30;2.35;;;;;;;6.68;93.61;98598.97;4955972;29;20087;-96
2023/03/23 02:58:08;;;;;;;18.73;2.33;;;;;;;6.59;94.97;98591.94;4951501;29;20034;-96
2023/03/23 03:00:33;;;;;;;14.85;2.65;;;;;;;6.55;93.52;98575.13;4945840;29;20110;-96
2023/03/23 03:02:59;;;;;;;26.67;4.30;;;;;;;6.59;93.29;98590.19;4955445;28;20553;-96
2023/03/23 03:05:48;;;;;;;26.50;3.78;;;;;;;6.77;93.01;98621.38;4955821;28;20027;-96
2023/03/23 03:08:31;;;;;;;18.55;2.75;;;;;;;6.50;94.22;98616.47;4986689;28;20027;-96
2023/03/23 03:11:05;;;;;;;23.55;2.95;;;;;;;6.60;93.19;98616.63;4972007;28;20497;-96
2023/03/23 03:13:42;;;;;;;17.45;2.60;;;;;;;6.54;94.39;98619.66;4987266;28;20074;-95
2023/03/23 03:16:35;;;;;;;21.23;2.75;;;;;;;6.65;93.66;98612.00;4954724;28;20027;-96
2023/03/23 03:19:11;;;;;;;27.63;3.80;;;;;;;6.52;93.62;98611.25;4986661;28;20122;-96
2023/03/23 03:21:41;;;;;;;19.55;2.30;;;;;;;6.38;92.83;98574.56;4986788;28;20031;-95
2023/03/23 03:24:10;;;;;;;18.90;3.70;;;;;;;6.52;91.40;98570.22;4953811;29;20050;-96
2023/03/23 03:26:38;;;;;;;21.83;2.90;;;;;;;6.65;90.07;98586.38;4953752;28;20081;-95
2023/03/23 03:29:05;;;;;;;28.73;4.00;;;;;;;6.50;90.56;98582.34;4954791;29;20095;-96
2023/03/23 03:31:35;;;;;;;20.10;3.35;;;;;;;7.13;88.14;98575.28;4988048;28;20397;-95
2023/03/23 03:34:03;;;;;;;20.52;4.82;;;;;;;6.34;94.13;98593.66;4951439;29;20398;-96
2023/03/23 03:36:34;;;;;;;18.42;3.45;;;;;;;6.26;96.87;98602.78;4952287;29;20059;-96
2023/03/23 03:39:07;;;;;;;18.98;3.40;;;;;;;6.15;98.75;98595.88;4954596;28;20042;-96
2023/03/23 03:41:37;;;;;;;27.23;5.20;;;;;;;5.92;97.88;98566.66;4955265;29;20034;-96
2023/03/23 03:44:04;;;;;;;17.52;3.05;;;;;;;5.95;97.62;98582.69;4986621;28;20035;-96
2023/03/23 03:46:30;;;;;;;28.95;4.25;;;;;;;6.03;98.60;98596.69;4955090;28;20484;-96
2023/03/23 03:48:57;;;;;;;28.08;5.43;;;;;;;6.06;98.46;98604.16;4954669;28;20031;-95
2023/03/23 03:51:23;;;;;;;15.45;3.47;;;;;;;5.71;100.00;98581.75;4955087;29;20474;-95
2023/03/23 03:53:49;;;;;;;21.38;3.30;;;;;;;5.81;100.00;98589.63;4954665;29;20520;-95
2023/03/23 03:56:14;;;;;;;30.50;5.18;;;;;;;5.78;100.00;98577.84;4953819;29;20024;-96
2023/03/23 03:58:42;;;;;;;21.00;3.20;;;;;;;6.14;99.27;98597.56;4954725;29;20024;-96
2023/03/23 04:01:10;;;;;;;23.50;3.35;;;;;;;5.89;99.71;98593.28;4954310;28;20023;-96
2023/03/23 04:03:37;;;;;;;21.35;2.40;;;;;;;5.88;99.97;98589.09;4986449;28;20031;-95
2023/03/23 04:06:03;;;;;;;21.58;3.05;;;;;;;5.74;100.00;98596.88;4953879;29;20023;-96
2023/03/23 04:08:29;;;;;;;23.35;3.67;;;;;;;5.42;100.00;98589.63;4953294;28;20616;-96
2023/03/23 04:10:55;;;;;;;25.13;3.13;;;;;;;5.66;100.00;98594.84;4954699;29;20509;-96
2023/03/23 04:13:21;;;;;;;19.63;3.58;;;;;;;5.62;100.00;98600.28;4954327;29;20031;-96
2023/03/23 04:15:47;;;;;;;25.77;4.10;;;;;;;5.65;100.00;98590.63;4953231;29;20027;-96
2023/03/23 04:18:14;;;;;;;26.05;3.40;;;;;;;5.60;100.00;98602.09;4953472;28;20098;-96
2023/03/23 04:20:42;;;;;;;19.85;2.65;;;;;;;7.17;93.21;98608.28;4954696;29;20012;-96
2023/03/23 04:23:08;;;;;;;27.67;2.90;;;;;;;5.86;97.00;98588.38;4950870;29;20035;-96
2023/03/23 04:25:33;;;;;;;19.65;3.00;;;;;;;5.88;99.24;98613.91;4941528;28;20039;-96
2023/03/23 04:28:01;;;;;;;18.42;2.72;;;;;;;5.94;98.56;98600.69;4952206;28;20466;-96
2023/03/23 04:30:27;;;;;;;21.58;3.30;;;;;;;5.91;99.17;98614.50;4938655;29;20050;-95
2023/03/23 04:32:54;;;;;;;23.85;3.13;;;;;;;5.89;98.78;98598.41;4985558;28;20114;-96
2023/03/23 04:35:21;;;;;;;16.63;3.42;;;;;;;5.86;100.00;98598.63;4953963;28;20032;-96
2023/03/23 04:37:48;;;;;;;20.42;3.67;;;;;;;5.93;100.00;98617.78;4953291;29;20027;-96
2023/03/23 04:40:15;;;;;;;22.05;4.70;;;;;;;5.95;99.12;98592.91;4954021;29;20105;-96
2023/03/23 04:42:47;;;;;;;25.27;3.92;;;;;;;6.61;97.76;98620.84;4949738;28;20043;-96
2023/03/23 04:45:21;;;;;;;;;;;;;;;7.91;87.92;98610.53;4952867;29;20042;-95
2023/03/23 04:47:57;;;;;;;23.30;3.53;;;;;;;7.98;83.57;98583.44;4953726;29;19922;-96
2023/03/23 04:50:26;;;;;;;26.50;3.90;;;;;;;6.36;96.69;98622.53;4969816;28;20035;-95
2023/03/23 04:52:53;;;;;;;30.40;4.78;;;;;;;6.19;99.51;98607.50;4953541;29;20023;-96
2023/03/23 04:55:20;;;;;;;28.42;3.90;;;;;;;6.20;100.00;98614.28;4951240;28;20028;-95
2023/03/23 04:57:46;;;;;;;30.20;3.88;;;;;;;6.19;100.00;98603.22;4949667;29;20410;-96
2023/03/23 05:00:14;;;;;;;28.52;4.43;;;;;;;6.19;100.00;98610.06;4952849;29;20027;-96
2023/03/23 05:02:40;;;;;;;33.47;4.07;;;;;;;7.06;97.74;98595.41;4952333;29;20047;-96
2023/03/23 05:05:10;;;;;;;30.92;5.35;;;;;;;7.98;86.20;98575.72;4985730;28;20019;-95
2023/03/23 05:07:38;;;;;;;30.00;3.30;;;;;;;8.20;85.63;98581.78;4953142;29;20031;-96
2023/03/23 05:10:05;;;;;;;20.48;3.28;;;;;;;8.51;82.58;98580.22;4954119;29;20442;-96
2023/03/23 05:12:31;;;;;;;42.30;5.13;;;;;;;6.68;97.59;98596.41;4952813;28;20478;-96
2023/03/23 05:14:56;;;;;;;23.50;3.22;;;;;;;7.83;89.34;98592.31;4949677;28;20041;-95
2023/03/23 05:17:23;;;;;;;35.50;4.25;;;;;;;7.91;87.10;98577.94;4966947;28;20047;-96
2023/03/23 05:19:50;;;;;;;25.88;3.25;;;;;;;7.98;86.09;98580.88;4983183;28;20035;-95
2023/03/23 05:22:17;;;;;;;38.83;5.85;;;;;;;7.91;87.65;98574.56;4953405;29;20028;-96
2023/03/23 05:24:42;;;;;;;33.85;5.57;;;;;;;7.97;87.61;98586.09;4953056;28;20054;-96
2023/03/23 05:27:09;;;;;;;36.00;5.13;;;;;;;7.95;87.28;98573.41;4953592;29;20478;-96
2023/03/23 05:29:36;;;;;;;40.92;4.47;;;;;;;7.74;89.98;98557.06;4948319;29;20028;-95
2023/03/23 05:32:05;;;;;;;32.42;5.18;;;;;;;6.65;97.36;98573.56;4950179;29;20032;-95
2023/03/23 05:34:35;;;;;;;52.30;6.60;;;;;;;7.55;95.00;98578.16;4950838;29;20055;-96
2023/03/23 05:37:02;;;;;;;29.98;4.93;;;;;;;7.57;92.63;98548.88;4953519;29;20027;-95
2023/03/23 05:39:29;;;;;;;32.03;4.38;;;;;;;8.07;89.52;98572.47;4949644;29;20040;-96
2023/03/23 05:41:55;;;;;;;27.63;3.70;;;;;;;8.08;87.97;98552.72;4950223;29;20043;-96
2023/03/23 05:44:23;;;;;;;47.08;4.57;;;;;;;8.15;87.98;98541.84;4951907;28;20030;-96
2023/03/23 05:46:49;;;;;;;37.83;4.63;;;;;;;7.97;89.35;98556.09;4953544;29;20038;-96
2023/03/23 05:49:16;;;;;;;28.13;5.68;;;;;;;8.28;88.66;98564.81;4952924;28;20031;-96
2023/03/23 05:51:42;;;;;;;42.42;5.38;;;;;;;8.43;88.36;98567.16;4956719;29;20474;-96
2023/03/23 05:54:08;;;;;;;40.58;4.45;;;;;;;8.54;87.92;98570.53;4953718;29;20471;-96
2023/03/23 05:56:34;;;;;;;53.38;7.13;;;;;;;8.82;87.27;98593.25;4989628;28;20028;-96
2023/03/23 05:59:00;;;;;;;31.27;4.28;;;;;;;8.99;85.78;98569.53;4957055;29;20020;-96
2023/03/23 06:01:29;;;;;;;45.38;6.60;;;;;;;8.92;86.34;98558.09;4947342;29;20502;-96
2023/03/23 06:03:58;;;;;;;45.28;4.95;;;;;;;8.90;86.68;98581.41;4937751;29;20031;-95
2023/03/23 06:06:27;;;;;;;35.75;4.65;;;;;;;8.95;87.17;98594.72;4979276;28;20032;-95
2023/03/23 06:08:53;;;;;;;41.95;4.95;;;;;;;9.04;86.17;98576.91;4956904;29;20027;-96
2023/03/23 06:11:18;;;;;;;41.60;5.43;;;;;;;8.90;86.06;98545.38;4987282;28;20035;-95
2023/03/23 06:13:44;;;;;;;43.97;5.03;;;;;;;8.85;87.46;98557.81;4953266;28;20016;-96
2023/03/23 06:16:10;;;;;;;47.70;5.47;;;;;;;8.83;89.19;98564.81;4937713;29;20497;-95
2023/03/23 06:18:36;;;;;;;43.40;6.88;;;;;;;9.37;85.73;98569.00;4954911;28;20390;-96
2023/03/23 06:21:05;;;;;;;47.85;6.18;;;;;;;9.37;85.69;98566.41;4957244;28;20030;-95
2023/03/23 06:23:31;;;;;;;51.85;6.45;;;;;;;9.10;89.03;98566.13;4942058;28;20046;-95
2023/03/23 06:26:00;;;;;;;47.03;6.75;;;;;;;9.02;89.86;98527.31;4956403;29;20122;-95
2023/03/23 06:28:26;;;;;;;43.35;6.95;;;;;;;9.19;89.94;98544.75;4985303;28;20545;-96
2023/03/23 06:30:52;;;;;;;70.85;7.68;;;;;;;9.23;91.48;98560.78;4966317;28;20051;-96
2023/03/23 06:33:19;;;;;;;62.80;7.38;;;;;;;8.18;100.00;98573.38;4969848;28;20050;-96
2023/03/23 06:35:44;;;;;;;58.97;6.65;;;;;;;9.64;92.37;98590.84;4988670;28;20019;-95
2023/03/23 06:38:10;;;;;;;50.30;7.05;;;;;;;9.34;92.98;98561.53;4955980;28;20042;-96
2023/03/23 06:40:48;;;;;;;47.50;6.82;;;;;;;8.54;98.52;98562.81;4953797;28;20027;-96
2023/03/23 06:43:13;;;;;;;54.90;6.75;;;;;;;8.32;100.00;98568.78;4952119;28;20031;-96
2023/03/23 06:45:40;;;;;;;40.90;5.93;;;;;;;10.00;89.97;98570.66;4951852;28;20031;-96
2023/03/23 06:48:06;;;;;;;53.60;7.75;;;;;;;10.02;90.52;98579.06;4951112;29;20031;-96
2023/03/23 06:50:32;;;;;;;48.90;7.68;;;;;;;9.13;92.27;98558.13;4952710;28;20028;-96
2023/03/23 06:52:57;;;;;;;54.58;6.47;;;;;;;10.21;87.72;98558.50;4969153;28;20465;-96
2023/03/23 06:55:23;;;;;;;56.90;8.48;;;;;;;9.32;91.89;98550.53;4988742;28;20026;-96
2023/03/23 06:57:48;;;;;;;41.85;5.22;;;;;;;8.97;97.51;98558.56;4953460;29;20326;-96
2023/03/23 07:00:15;;;;;;;45.88;5.35;;;;;;;9.18;95.98;98563.72;4956308;28;20038;-96
2023/03/23 07:02:40;;;;;;;49.75;7.22;;;;;;;9.18;97.36;98589.47;4956796;28;20031;-95
2023/03/23 07:05:08;;;;;;;41.10;6.15;;;;;;;10.34;90.35;98593.56;4953077;28;20035;-95
2023/03/23 07:07:34;;;;;;;62.00;6.70;;;;;;;9.59;91.45;98572.38;4951809;29;20116;-95
2023/03/23 07:10:00;;;;;;;33.67;5.45;;;;;;;9.76;88.94;98564.06;4969084;28;20031;-96
2023/03/23 07:12:27;;;;;;;33.67;4.70;;;;;;;10.89;82.44;98568.13;4953404;29;20050;-95
2023/03/23 07:14:52;;;;;;;53.20;7.57;;;;;;;10.96;79.83;98558.88;4955599;29;20029;-95
2023/03/23 07:17:18;;;;;;;45.03;5.55;;;;;;;10.94;80.61;98576.25;4951404;29;20130;-95
2023/03/23 07:19:43;;;;;;;42.88;6.18;;;;;;;11.11;78.40;98562.66;4937026;29;20466;-95
2023/03/23 07:22:09;;;;;;;41.40;6.63;;;;;;;10.41;80.15;98568.88;4954542;29;20039;-95
2023/03/23 07:24:35;;;;;;;29.02;5.00;;;;;;;9.90;86.76;98574.94;4955299;28;20031;-95
2023/03/23 07:27:01;;;;;;;34.13;5.88;;;;;;;10.41;84.91;98585.19;4953862;29;20031;-96
2023/03/23 07:29:27;;;;;;;38.67;6.93;;;;;;;10.84;82.06;98591.75;4955366;29;20023;-96
2023/03/23 07:32:07;;;;;;;;;;;;;;;;;;;;;
2023/03/23 07:34:33;;;;;;;40.97;7.55;;;;;;;10.67;82.63;98577.75;4961468;28;20114;-96
2023/03/23 07:37:15;;;;;;;30.20;5.45;;;;;;;11.75;77.81;98573.25;4958112;29;20078;-96
2023/03/23 07:39:41;;;;;;;;;;;;;;;13.00;72.66;98603.78;4993826;28;20058;-96
2023/03/23 07:42:34;;;;;;;43.83;6.30;;;;;;;13.67;67.99;98599.75;4983333;28;19919;-96
2023/03/23 07:45:52;;;;;;;37.47;5.25;;;;;;;16.02;60.07;98596.06;4953906;28;20106;-96
2023/03/23 07:53:12;;;;;;;;;;;;;;;;;;;;;
2023/03/23 07:59:54;;;;;;;;;;;;;;;;;;;;;
2023/03/23 08:19:43;;;;;;;17.60;4.10;;;;;;;22.17;39.14;98617.91;4928030;29;20044;-96
2023/03/23 08:22:09;;;;;;;22.98;4.60;;;;;;;22.48;40.61;98622.44;4921066;29;20463;-96
2023/03/23 08:24:40;;;;;;;21.85;4.53;;;;;;;23.63;38.02;98618.81;4918074;29;20387;-96
2023/03/23 08:27:06;;;;;;;23.80;4.47;;;;;;;24.55;36.80;98621.50;4936328;29;20047;-96
2023/03/23 08:29:59;;;;;;;20.10;4.75;;;;;;;25.18;35.06;98621.00;4931665;29;20032;-96
2023/03/23 08:32:25;;;;;;;22.38;4.13;;;;;;;25.03;34.90;98607.41;4901154;29;20064;-96
2023/03/23 08:34:59;;;;;;;17.98;4.72;;;;;;;24.08;35.86;98626.50;4923284;29;20028;-96
2023/03/23 08:37:30;;;;;;;23.67;4.38;;;;;;;24.20;37.58;98632.66;4935583;29;20541;-96
2023/03/23 08:40:07;;;;;;;12.10;3.50;;;;;;;25.79;34.69;98626.06;4911269;29;20028;-96
2023/03/23 08:42:38;;;;;;;22.98;4.25;;;;;;;22.64;40.43;98600.91;4931781;29;20033;-96
2023/03/23 08:45:16;;;;;;;27.58;4.82;;;;;;;24.52;36.25;98620.09;4936919;29;20033;-96
2023/03/23 08:47:44;;;;;;;18.75;4.50;;;;;;;25.41;35.50;98606.22;4919528;29;20036;-96
2023/03/23 08:50:17;;;;;;;20.70;4.40;;;;;;;18.92;45.59;98600.13;4933311;29;20029;-96
2023/03/23 08:52:46;;;;;;;24.35;5.03;;;;;;;17.73;50.68;98602.91;4929567;29;20028;-96
2023/03/23 08:55:12;;;;;;;26.15;5.05;;;;;;;19.29;47.78;98634.84;4930108;29;20079;-96
2023/03/23 08:57:38;;;;;;;28.15;5.05;;;;;;;18.88;46.93;98593.66;4929457;29;20021;-96
2023/03/23 09:00:15;;;;;;;21.98;5.00;;;;;;;19.58;44.70;98616.38;4930133;29;20032;-96
2023/03/23 09:02:42;;;;;;;21.90;3.95;;;;;;;17.92;49.24;98589.34;4929873;29;20028;-96
2023/03/23 09:05:10;;;;;;;24.63;4.25;;;;;;;22.19;40.26;98593.03;4930841;29;20028;-96
2023/03/23 09:07:58;;;;;;;24.80;4.93;;;;;;;18.12;47.96;98602.66;4932354;29;20032;-96
2023/03/23 09:10:30;;;;;;;20.88;4.90;;;;;;;21.67;44.28;98620.25;4930634;29;20490;-96
2023/03/23 09:12:59;;;;;;;27.60;4.57;;;;;;;18.81;48.13;98590.97;4933478;29;20471;-96
2023/03/23 09:15:31;;;;;;;25.50;5.72;;;;;;;19.06;49.20;98590.59;4935127;29;20068;-96
2023/03/23 09:18:00;;;;;;;20.08;4.13;;;;;;;21.47;42.14;98589.56;4935849;29;20495;-96
2023/03/23 09:20:28;;;;;;;22.90;5.40;;;;;;;19.42;46.17;98593.91;4934466;29;20044;-96
2023/03/23 09:22:55;;;;;;;27.15;4.80;;;;;;;18.57;49.30;98597.31;4936545;29;20048;-96
2023/03/23 09:25:25;;;;;;;28.35;4.70;;;;;;;18.95;48.20;98594.53;4936013;29;20036;-96
2023/03/23 09:28:04;;;;;;;21.80;5.13;;;;;;;17.74;50.62;98607.09;4941404;29;20025;-96
2023/03/23 09:30:37;;;;;;;30.77;4.97;;;;;;;14.50;61.35;98598.34;4908220;29;20036;-96
2023/03/23 09:33:08;;;;;;;30.27;5.20;;;;;;;14.12;63.41;98579.75;4924611;29;20024;-96
2023/03/23 09:35:45;;;;;;;24.38;4.60;;;;;;;13.48;66.96;98581.81;4941879;29;20029;-96
2023/03/23 09:38:32;;;;;;;30.67;6.00;;;;;;;13.60;67.83;98580.59;4941407;29;20028;-96
2023/03/23 09:41:22;;;;;;;21.13;3.72;;;;;;;13.08;69.77;98601.25;4912654;29;20037;-96
2023/03/23 09:44:12;;;;;;;19.58;4.30;;;;;;;12.67;72.29;98600.88;4943552;29;20032;-96
2023/03/23 09:47:32;;;;;;;;;;;;;;;;;;;;;
2023/03/23 09:50:32;;;;;;;27.67;4.35;;;;;;;13.82;71.28;98623.34;4913536;29;20089;-96
2023/03/23 09:53:36;;;;;;;;;;;;;;;;;;;;;
2023/03/23 13:53:03;;;;;;;56.22;12.25;;;;;;;11.52;100.00;98524.53;5004005;23;20047;-96
2023/03/23 13:55:40;;;;;;;54.53;9.85;;;;;;;11.44;100.00;98501.16;4945817;28;20048;-96
2023/03/23 13:58:06;;;;;;;51.70;8.52;;;;;;;11.45;100.00;98513.13;4937407;29;20122;-96
2023/03/23 14:00:34;;;;;;;50.00;8.60;;;;;;;11.46;100.00;98514.75;4935811;29;20066;-96
2023/03/23 14:03:09;;;;;;;50.17;9.25;;;;;;;11.07;100.00;98514.84;4936288;29;20063;-96
2023/03/23 14:05:38;;;;;;;49.15;7.72;;;;;;;11.00;100.00;98508.63;4936149;29;20032;-96
2023/03/23 14:08:22;;;;;;;54.15;8.80;;;;;;;10.75;100.00;98519.50;4937397;29;20032;-96
2023/03/23 14:10:57;;;;;;;53.13;8.63;;;;;;;10.76;100.00;98505.66;4941233;29;20122;-96
2023/03/23 14:13:34;;;;;;;44.60;6.97;;;;;;;10.74;100.00;98498.03;4943562;29;20040;-96
2023/03/23 14:16:13;;;;;;;69.38;12.27;;;;;;;10.66;100.00;98510.81;4943646;29;20043;-95
2023/03/23 14:18:41;;;;;;;52.58;9.73;;;;;;;11.86;100.00;98499.91;4940727;29;20119;-95
2023/03/23 14:21:15;;;;;;;57.63;10.00;;;;;;;12.17;100.00;98498.66;4938965;29;20051;-94
2023/03/23 14:23:41;;;;;;;46.50;7.63;;;;;;;11.98;100.00;98488.44;4938981;29;20038;-96
2023/03/23 14:26:15;;;;;;;51.03;7.15;;;;;;;11.98;100.00;98488.44;4937647;29;20020;-96
2023/03/23 14:28:42;;;;;;;47.72;6.65;;;;;;;10.52;100.00;98504.28;4937988;29;20114;-94
2023/03/23 14:31:19;;;;;;;46.08;6.28;;;;;;;10.33;100.00;98493.97;4937810;29;20031;-96
2023/03/23 14:33:47;;;;;;;39.70;7.80;;;;;;;10.16;100.00;98503.94;4937905;29;20031;-95
2023/03/23 14:36:14;;;;;;;49.58;7.63;;;;;;;-143.29;100.00;62188.47;4937258;29;20086;-95
2023/03/23 14:38:39;;;;;;;57.72;7.47;;;;;;;-143.29;100.00;62188.47;4937474;29;20123;-95
2023/03/23 14:41:06;;;;;;;47.33;7.35;;;;;;;-143.29;100.00;62188.47;4938340;29;20506;-95
2023/03/23 14:43:34;;;;;;;47.42;7.32;;;;;;;-143.29;100.00;62188.47;4937611;29;20028;-95
2023/03/23 14:46:02;;;;;;;43.28;7.15;;;;;;;-143.29;100.00;62188.47;4939244;29;20032;-96
2023/03/23 14:48:29;;;;;;;45.40;6.82;;;;;;;-143.29;100.00;62188.47;4939763;29;20028;-95
2023/03/23 14:51:02;;;;;;;40.80;7.78;;;;;;;-143.29;100.00;62188.47;4940539;29;20031;-94
2023/03/23 14:53:39;;;;;;;39.60;7.07;;;;;;;10.12;100.00;98455.34;4939444;29;20044;-95
2023/03/23 14:56:13;;;;;;;35.42;5.63;;;;;;;10.28;100.00;98487.44;4937395;29;20083;-94
2023/03/23 14:58:47;;;;;;;50.58;7.25;;;;;;;10.28;100.00;98487.44;4936842;29;20439;-95
2023/03/23 15:01:27;;;;;;;37.42;5.80;;;;;;;9.93;100.00;98440.69;4937636;29;20036;-95
2023/03/23 15:04:21;;;;;;;44.70;5.25;;;;;;;10.07;100.00;98455.75;4937681;29;20102;-95
2023/03/23 15:07:01;;;;;;;39.95;6.13;;;;;;;9.90;100.00;98438.38;4936644;29;20054;-95
2023/03/23 15:09:27;;;;;;;43.50;5.38;;;;;;;9.82;100.00;98445.00;4938408;29;20082;-94
2023/03/23 15:11:59;;;;;;;36.08;5.50;;;;;;;10.35;100.00;98443.06;4936573;29;20226;-94
2023/03/23 15:14:59;;;;;;;49.80;6.20;;;;;;;9.89;100.00;98403.25;4936680;29;20040;-95
2023/03/23 15:17:28;;;;;;;40.38;5.57;;;;;;;9.87;100.00;98395.66;4936824;29;20406;-96
2023/03/23 15:19:55;;;;;;;45.85;8.88;;;;;;;9.82;100.00;98413.28;4936475;29;20031;-96
2023/03/23 15:22:29;;;;;;;43.38;6.63;;;;;;;9.60;100.00;98398.84;4936425;29;20020;-95
2023/03/23 15:25:08;;;;;;;43.05;7.18;;;;;;;9.77;100.00;98395.63;4936474;29;20031;-95
2023/03/23 15:27:41;;;;;;;47.50;6.10;;;;;;;9.84;100.00;98377.88;4936247;29;20027;-95
2023/03/23 15:30:14;;;;;;;44.42;6.55;;;;;;;9.97;100.00;98386.19;4936117;29;20020;-96
2023/03/23 15:32:42;;;;;;;39.83;8.63;;;;;;;10.13;100.00;98375.31;4936145;29;20032;-94
2023/03/23 15:35:20;;;;;;;45.00;6.30;;;;;;;9.90;100.00;98372.22;4936005;29;20031;-95
2023/03/23 15:37:59;;;;;;;44.67;5.78;;;;;;;9.94;100.00;98365.00;4936488;29;20030;-94
2023/03/23 15:40:27;;;;;;;46.60;6.05;;;;;;;9.82;100.00;98339.34;4935703;29;20545;-94
2023/03/23 15:43:16;;;;;;;40.08;5.93;;;;;;;10.16;100.00;98338.94;4935608;29;20031;-94
2023/03/23 15:46:19;;;;;;;41.58;5.32;;;;;;;9.90;100.00;98332.72;4935796;29;20028;-94
2023/03/23 15:48:54;;;;;;;45.95;5.60;;;;;;;10.28;100.00;98353.34;4935884;29;20120;-94
2023/03/23 15:51:22;;;;;;;44.83;6.25;;;;;;;10.02;100.00;98331.63;4935586;29;20028;-94
2023/03/23 15:53:50;;;;;;;58.80;8.27;;;;;;;10.33;100.00;98340.06;4935323;29;20046;-95
2023/03/23 15:56:16;;;;;;;62.67;6.60;;;;;;;16.16;100.00;98362.09;4935413;29;20019;-94
2023/03/23 15:58:42;;;;;;;71.80;7.55;;;;;;;22.46;100.00;98529.03;4935668;29;20070;-96
2023/03/23 16:01:13;;;;;;;39.92;5.60;;;;;;;15.59;100.00;99048.00;4935745;29;20452;-92
2023/03/23 16:03:48;;;;;;;55.17;6.10;;;;;;;13.61;100.00;98328.22;4935635;29;20027;-94
2023/03/23 16:06:15;;;;;;;33.55;4.75;;;;;;;16.47;100.00;98328.94;4935719;29;20066;-95
2023/03/23 16:08:41;;;;;;;569.97;132.70;;;;;;;13.47;100.00;98321.84;4936231;29;20123;-93
2023/03/23 16:11:10;;;;;;;554.15;125.38;;;;;;;11.54;100.00;98323.69;4935810;29;20122;-93
2023/03/23 16:13:36;;;;;;;563.42;127.90;;;;;;;10.56;100.00;98319.94;4936189;29;20023;-95
2023/03/23 16:16:03;;;;;;;32.78;4.97;;;;;;;10.83;100.00;98323.50;4937436;29;20115;-95